createdAt,value
2023-02-14T00:01:41.510Z,4.56
2023-02-14T00:05:43.410Z,4.51
2023-02-14T00:09:44.995Z,4.47
2023-02-14T00:14:05.882Z,4.47
2023-02-14T00:18:07.485Z,4.44
2023-02-14T00:22:09.103Z,4.44
2023-02-14T00:26:15.092Z,4.44
2023-02-14T00:30:17.882Z,4.43
2023-02-14T00:34:19.769Z,4.42
2023-02-14T00:38:21.305Z,4.39
2023-02-14T00:42:22.867Z,4.36
2023-02-14T00:46:25.605Z,4.25
2023-02-14T00:50:27.227Z,4.18
2023-02-14T00:54:28.750Z,4.16
2023-02-14T00:58:31.318Z,4.10
2023-02-14T01:02:32.832Z,4.06
2023-02-14T01:06:34.528Z,4.00
2023-02-14T01:10:37.306Z,3.95
2023-02-14T01:14:38.886Z,3.92
2023-02-14T01:18:41.011Z,3.89
2023-02-14T01:22:44.064Z,3.84
2023-02-14T01:26:45.581Z,3.77
2023-02-14T01:30:47.196Z,3.71
2023-02-14T01:34:48.742Z,3.78
2023-02-14T01:38:56.040Z,3.63
2023-02-14T01:42:58.095Z,3.60
2023-02-14T01:47:03.164Z,3.54
2023-02-14T01:51:04.817Z,3.50
2023-02-14T01:55:20.606Z,3.42
2023-02-14T01:59:26.405Z,3.20
2023-02-14T02:03:38.968Z,3.20
2023-02-14T02:07:40.745Z,3.17
2023-02-14T02:11:43.184Z,3.10
2023-02-14T02:15:50.814Z,3.08
2023-02-14T02:20:40.192Z,2.99
2023-02-14T02:25:16.243Z,2.94
2023-02-14T02:29:45.185Z,2.92
2023-02-14T02:34:05.112Z,2.86
2023-02-14T02:38:36.651Z,2.79
2023-02-14T02:43:11.105Z,2.74
2023-02-14T02:47:25.487Z,2.74
2023-02-14T02:51:54.367Z,2.69
2023-02-14T02:56:29.097Z,2.73
2023-02-14T03:00:31.645Z,2.71
2023-02-14T03:04:55.731Z,2.65
2023-02-14T03:09:33.660Z,2.66
2023-02-14T03:13:57.079Z,2.62
2023-02-14T03:18:45.194Z,2.59
2023-02-14T03:23:00.325Z,2.55
2023-02-14T03:27:12.275Z,2.53
2023-02-14T03:31:32.423Z,2.55
2023-02-14T03:35:50.709Z,2.56
2023-02-14T03:40:17.737Z,2.56
2023-02-14T03:44:25.730Z,2.56
2023-02-14T03:48:29.932Z,2.51
2023-02-14T03:52:33.897Z,2.48
2023-02-14T03:56:45.011Z,2.41
2023-02-14T04:00:50.262Z,2.41
2023-02-14T04:04:53.407Z,2.43
2023-02-14T04:08:55.301Z,2.43
2023-02-14T04:12:56.859Z,2.40
2023-02-14T04:17:17.193Z,2.41
2023-02-14T04:21:18.895Z,2.44
2023-02-14T04:25:21.254Z,2.43
2023-02-14T04:29:23.076Z,2.45
2023-02-14T04:33:24.583Z,2.53
2023-02-14T04:37:26.269Z,2.59
2023-02-14T04:41:27.770Z,2.65
2023-02-14T04:45:29.319Z,2.66
2023-02-14T04:49:30.837Z,2.68
2023-02-14T04:53:32.546Z,2.73
2023-02-14T04:57:34.151Z,2.74
2023-02-14T05:01:35.725Z,2.74
2023-02-14T05:05:37.266Z,2.76
2023-02-14T05:09:38.821Z,2.80
2023-02-14T05:13:40.454Z,2.83
2023-02-14T05:17:42.000Z,2.83
2023-02-14T05:21:43.538Z,2.84
2023-02-14T05:25:47.957Z,2.84
2023-02-14T05:29:49.608Z,2.83
2023-02-14T05:33:51.203Z,2.86
2023-02-14T05:37:53.092Z,2.84
2023-02-14T05:41:58.476Z,2.89
2023-02-14T05:46:00.990Z,2.89
2023-02-14T05:50:02.683Z,2.92
2023-02-14T05:54:04.258Z,2.90
2023-02-14T05:58:05.930Z,2.90
2023-02-14T06:02:07.478Z,2.94
2023-02-14T06:06:09.115Z,2.90
2023-02-14T06:10:10.845Z,2.87
2023-02-14T06:14:12.427Z,2.87
2023-02-14T06:18:14.027Z,2.87
2023-02-14T06:22:16.113Z,2.83
2023-02-14T06:26:17.698Z,2.84
2023-02-14T06:30:19.416Z,2.86
2023-02-14T06:34:21.004Z,2.86
2023-02-14T06:38:22.522Z,2.83
2023-02-14T06:42:24.142Z,2.83
2023-02-14T06:46:26.011Z,2.83
2023-02-14T06:50:27.665Z,2.84
2023-02-14T06:54:29.240Z,2.89
2023-02-14T06:58:31.503Z,2.87
2023-02-14T07:02:33.063Z,2.89
2023-02-14T07:06:36.840Z,2.92
2023-02-14T07:10:38.623Z,2.94
2023-02-14T07:14:40.283Z,2.99
2023-02-14T07:18:41.844Z,3.01
2023-02-14T07:22:43.419Z,3.07
2023-02-14T07:26:45.030Z,3.08
2023-02-14T07:30:46.637Z,3.05
2023-02-14T07:34:48.377Z,3.07
2023-02-14T07:38:49.943Z,3.08
2023-02-14T07:42:55.815Z,3.10
2023-02-14T07:46:57.301Z,3.10
2023-02-14T07:50:59.380Z,3.10
2023-02-14T07:55:01.054Z,3.13
2023-02-14T07:59:02.999Z,3.23
2023-02-14T08:03:04.521Z,3.23
2023-02-14T08:07:06.070Z,3.25
2023-02-14T08:11:08.121Z,3.30
2023-02-14T08:15:28.197Z,3.35
2023-02-14T08:19:30.025Z,3.37
2023-02-14T08:23:32.198Z,3.42
2023-02-14T08:27:33.851Z,3.45
2023-02-14T08:31:36.647Z,3.37
2023-02-14T08:35:39.103Z,3.49
2023-02-14T08:39:40.676Z,3.50
2023-02-14T08:43:42.512Z,3.56
2023-02-14T08:47:44.138Z,3.59
2023-02-14T08:51:45.977Z,3.63
2023-02-14T08:55:48.132Z,3.59
2023-02-14T08:59:49.727Z,3.71
2023-02-14T09:03:51.402Z,3.78
2023-02-14T09:07:55.887Z,3.80
2023-02-14T09:11:57.546Z,3.81
2023-02-14T09:16:02.822Z,3.78
2023-02-14T09:20:10.990Z,3.86
2023-02-14T09:24:12.741Z,3.80
2023-02-14T09:28:14.248Z,3.82
2023-02-14T09:32:16.164Z,3.92
2023-02-14T09:36:36.949Z,3.98
2023-02-14T09:40:38.567Z,4.06
2023-02-14T09:44:46.380Z,4.10
2023-02-14T09:48:49.285Z,4.08
2023-02-14T09:52:55.467Z,4.17
2023-02-14T09:57:22.734Z,4.20
2023-02-14T10:01:33.185Z,4.25
2023-02-14T10:06:04.374Z,4.25
2023-02-14T10:10:26.483Z,4.34
2023-02-14T10:14:35.918Z,4.39
2023-02-14T10:18:42.836Z,4.44
2023-02-14T10:23:01.924Z,4.49
2023-02-14T10:27:26.497Z,4.51
2023-02-14T10:31:41.954Z,4.62
2023-02-14T10:35:52.393Z,4.67
2023-02-14T10:40:03.066Z,4.75
2023-02-14T10:44:40.926Z,4.83
2023-02-14T10:49:07.371Z,4.93
2023-02-14T10:53:47.174Z,4.97
2023-02-14T10:57:53.353Z,5.02
2023-02-14T11:01:56.459Z,5.09
2023-02-14T11:05:58.041Z,5.14
2023-02-14T11:09:59.699Z,5.14
2023-02-14T11:14:23.380Z,5.15
2023-02-14T11:18:31.785Z,5.20
2023-02-14T11:22:35.116Z,5.26
2023-02-14T11:26:36.936Z,5.22
2023-02-14T11:30:45.745Z,5.32
2023-02-14T11:34:54.060Z,5.33
2023-02-14T11:39:25.891Z,5.42
2023-02-14T11:43:36.516Z,5.44
2023-02-14T11:47:41.380Z,5.52
2023-02-14T11:51:45.571Z,5.51
2023-02-14T11:55:52.688Z,5.58
2023-02-14T11:59:56.889Z,5.60
2023-02-14T12:04:02.955Z,5.56
2023-02-14T12:08:08.074Z,5.66
2023-02-14T12:12:21.429Z,5.77
2023-02-14T12:16:39.683Z,5.75
2023-02-14T12:20:45.581Z,5.74
2023-02-14T12:24:53.075Z,5.69
2023-02-14T12:29:26.175Z,5.77
2023-02-14T12:33:28.522Z,5.77
2023-02-14T12:37:56.023Z,5.84
2023-02-14T12:42:13.296Z,5.90
2023-02-14T12:46:33.092Z,5.88
2023-02-14T12:51:03.750Z,5.85
2023-02-14T12:55:48.408Z,5.98
2023-02-14T13:00:34.069Z,6.05
2023-02-14T13:04:57.083Z,6.03
2023-02-14T13:09:10.738Z,5.92
2023-02-14T13:13:30.682Z,6.20
2023-02-14T13:17:44.742Z,6.14
2023-02-14T13:21:48.751Z,6.14
2023-02-14T13:26:06.334Z,6.10
2023-02-14T13:30:23.234Z,6.06
2023-02-14T13:34:36.852Z,6.06
2023-02-14T13:38:44.906Z,6.14
2023-02-14T13:42:52.557Z,6.19
2023-02-14T13:46:54.253Z,6.21
2023-02-14T13:50:55.774Z,6.27
2023-02-14T13:55:02.063Z,6.19
2023-02-14T13:59:06.209Z,6.20
2023-02-14T14:03:14.604Z,6.24
2023-02-14T14:07:23.040Z,6.25
2023-02-14T14:11:24.503Z,6.33
2023-02-14T14:15:26.120Z,6.28
2023-02-14T14:19:27.668Z,6.32
2023-02-14T14:23:32.584Z,6.28
2023-02-14T14:27:47.098Z,6.28
2023-02-14T14:31:55.322Z,6.28
2023-02-14T14:36:08.243Z,6.28
2023-02-14T14:40:22.779Z,6.24
2023-02-14T14:44:25.402Z,6.16
2023-02-14T14:48:30.107Z,6.21
2023-02-14T14:52:38.198Z,6.17
2023-02-14T14:56:52.327Z,6.10
2023-02-14T15:00:54.013Z,6.10
2023-02-14T15:04:55.731Z,6.06
2023-02-14T15:08:57.343Z,5.95
2023-02-14T15:13:17.971Z,5.78
2023-02-14T15:17:25.589Z,5.69
2023-02-14T15:21:28.257Z,5.55
2023-02-14T15:25:34.696Z,5.48
2023-02-14T15:29:36.292Z,5.44
2023-02-14T15:33:39.072Z,5.44
2023-02-14T15:37:40.862Z,5.41
2023-02-14T15:41:44.679Z,5.35
2023-02-14T15:45:49.270Z,5.19
2023-02-14T15:49:50.992Z,5.11
2023-02-14T15:54:02.023Z,5.02
2023-02-14T15:58:11.930Z,4.97
2023-02-14T16:02:32.534Z,4.83
2023-02-14T16:06:44.682Z,4.75
2023-02-14T16:10:59.525Z,4.67
2023-02-14T16:15:10.753Z,4.64
2023-02-14T16:19:32.085Z,4.59
2023-02-14T16:23:36.965Z,4.49
2023-02-14T16:27:38.773Z,4.44
2023-02-14T16:32:14.207Z,4.42
2023-02-14T16:36:19.934Z,4.35
2023-02-14T16:40:26.416Z,4.32
2023-02-14T16:44:27.989Z,4.25
2023-02-14T16:48:29.642Z,4.21
2023-02-14T16:52:31.307Z,4.18
2023-02-14T16:56:41.579Z,4.14
2023-02-14T17:00:43.156Z,4.08
2023-02-14T17:04:45.246Z,3.99
2023-02-14T17:08:48.716Z,3.89
2023-02-14T17:12:51.581Z,3.88
2023-02-14T17:16:55.068Z,3.82
2023-02-14T17:21:00.939Z,3.78
2023-02-14T17:25:03.756Z,3.72
2023-02-14T17:29:06.840Z,3.68
2023-02-14T17:33:08.408Z,3.64
2023-02-14T17:37:09.903Z,3.54
2023-02-14T17:41:18.614Z,3.49
2023-02-14T17:45:20.206Z,3.42
2023-02-14T17:49:21.790Z,3.35
2023-02-14T17:53:23.424Z,3.34
2023-02-14T17:57:25.365Z,3.33
2023-02-14T18:01:31.484Z,3.30
2023-02-14T18:05:36.268Z,3.28
2023-02-14T18:09:37.837Z,3.22
2023-02-14T18:13:39.793Z,3.19
2023-02-14T18:17:41.364Z,3.16
2023-02-14T18:21:45.024Z,3.12
2023-02-14T18:25:55.806Z,3.07
2023-02-14T18:29:57.363Z,3.04
2023-02-14T18:34:02.805Z,3.05
2023-02-14T18:38:04.619Z,3.01
2023-02-14T18:42:06.263Z,3.04
2023-02-14T18:46:10.838Z,3.07
2023-02-14T18:50:12.404Z,3.10
2023-02-14T18:54:14.422Z,3.10
2023-02-14T18:58:15.901Z,3.17
2023-02-14T19:02:17.597Z,3.22
2023-02-14T19:06:19.558Z,3.28
2023-02-14T19:10:21.111Z,3.30
2023-02-14T19:14:22.612Z,3.31
2023-02-14T19:18:25.736Z,3.33
2023-02-14T19:22:27.311Z,3.41
2023-02-14T19:26:37.113Z,3.41
2023-02-14T19:30:38.754Z,3.44
2023-02-14T19:34:40.822Z,3.45
2023-02-14T19:38:45.238Z,3.46
2023-02-14T19:42:47.504Z,3.46
2023-02-14T19:46:49.764Z,3.50
2023-02-14T19:50:52.500Z,3.53
2023-02-14T19:54:55.873Z,3.54
2023-02-14T19:58:58.410Z,3.56
2023-02-14T20:03:01.498Z,3.53
2023-02-14T20:07:03.136Z,3.54
2023-02-14T20:11:04.672Z,3.57
2023-02-14T20:15:08.214Z,3.53
2023-02-14T20:19:16.573Z,3.52
2023-02-14T20:23:18.109Z,3.53
2023-02-14T20:27:19.955Z,3.50
2023-02-14T20:31:21.937Z,3.49
2023-02-14T20:35:23.578Z,3.44
2023-02-14T20:39:29.747Z,3.44
2023-02-14T20:43:31.306Z,3.39
2023-02-14T20:47:32.834Z,3.35
2023-02-14T20:51:35.012Z,3.33
2023-02-14T20:55:41.753Z,3.35
2023-02-14T20:59:45.255Z,3.39
2023-02-14T21:03:50.412Z,3.34
2023-02-14T21:07:52.046Z,3.37
2023-02-14T21:11:54.107Z,3.35
2023-02-14T21:16:00.753Z,3.37
2023-02-14T21:20:02.320Z,3.34
2023-02-14T21:24:07.394Z,3.34
2023-02-14T21:28:09.004Z,3.37
2023-02-14T21:32:10.880Z,3.35
2023-02-14T21:36:15.348Z,3.33
2023-02-14T21:40:17.149Z,3.35
2023-02-14T21:44:41.372Z,3.35
2023-02-14T21:49:02.145Z,3.37
2023-02-14T21:53:07.340Z,3.39
2023-02-14T21:57:09.187Z,3.33
2023-02-14T22:01:19.568Z,3.33
2023-02-14T22:05:21.224Z,3.31
2023-02-14T22:09:22.954Z,3.30
2023-02-14T22:13:25.058Z,3.28
2023-02-14T22:17:27.949Z,3.22
2023-02-14T22:21:33.285Z,3.20
2023-02-14T22:25:35.027Z,3.23
2023-02-14T22:29:36.950Z,3.20
2023-02-14T22:33:39.053Z,3.22
2023-02-14T22:37:40.655Z,3.22
2023-02-14T22:41:42.800Z,3.17
2023-02-14T22:45:44.445Z,3.13
2023-02-14T22:49:46.172Z,3.07
2023-02-14T22:53:49.548Z,3.07
2023-02-14T22:57:51.225Z,3.10
2023-02-14T23:01:53.224Z,3.08
2023-02-14T23:05:58.240Z,3.08
2023-02-14T23:09:59.822Z,3.08
2023-02-14T23:14:20.009Z,3.05
2023-02-14T23:18:40.019Z,3.08
2023-02-14T23:22:41.593Z,3.07
2023-02-14T23:26:43.153Z,3.08
2023-02-14T23:30:44.794Z,3.13
2023-02-14T23:34:46.380Z,3.10
2023-02-14T23:38:47.937Z,3.12
2023-02-14T23:42:49.514Z,3.12
2023-02-14T23:46:53.472Z,3.15
2023-02-14T23:50:59.855Z,3.16
2023-02-14T23:55:01.434Z,3.16
2023-02-14T23:59:06.871Z,3.16
